Wetterdaten: Woche 06.10.03 - 12.10.03 (KW41)
Datum Zeit Temperatur Luftfeuchte Luftdruck Regenmenge Wind Richtung Taupunkt Windchill
06.10.2003 00:00 6.4 C 95 % 1015.7 hPa 0.0 l/m 5.9 km/h (2 Bft) W-NW 5.7 C 5.4 C
06.10.2003 01:00 6.5 C 92 % 1015.9 hPa 0.8 l/m 0.3 km/h (0 Bft) N 5.4 C 6.5 C
06.10.2003 02:00 6.4 C 96 % 1015.9 hPa 0.0 l/m 0.1 km/h (0 Bft) N 5.8 C 6.4 C
06.10.2003 03:00 6.5 C 96 % 1015.9 hPa 0.0 l/m 1.2 km/h (1 Bft) W-NW 6.0 C 6.4 C
06.10.2003 04:00 6.6 C 94 % 1015.9 hPa 0.0 l/m 1.0 km/h (0 Bft) NW 5.8 C 6.5 C
06.10.2003 05:00 6.5 C 93 % 1016.5 hPa 0.0 l/m 4.4 km/h (1 Bft) NW 5.4 C 5.8 C
06.10.2003 06:00 6.1 C 93 % 1016.9 hPa 0.0 l/m 6.7 km/h (2 Bft) NW 5.1 C 5.0 C
06.10.2003 07:00 6.2 C 93 % 1016.9 hPa 0.0 l/m 0.3 km/h (0 Bft) SW 5.2 C 6.2 C
06.10.2003 08:00 6.2 C 94 % 1017.3 hPa 0.0 l/m 0.1 km/h (0 Bft) N 5.3 C 6.2 C
06.10.2003 09:00 6.8 C 91 % 1018.0 hPa 0.0 l/m 2.6 km/h (1 Bft) SO 5.5 C 6.5 C
06.10.2003 10:00 8.0 C 84 % 1018.0 hPa 0.0 l/m 1.4 km/h (1 Bft) SO 5.4 C 7.9 C
06.10.2003 11:00 8.9 C 70 % 1017.3 hPa 0.0 l/m 15.4 km/h (3 Bft) NW 3.6 C 6.5 C
06.10.2003 12:00 9.4 C 61 % 1017.0 hPa 0.0 l/m 22.2 km/h (4 Bft) NW 2.2 C 6.6 C
06.10.2003 13:00 10.6 C 52 % 1016.6 hPa 0.0 l/m 22.9 km/h (4 Bft) NW 1.0 C 9.5 C
06.10.2003 14:00 11.9 C 47 % 1015.9 hPa 0.0 l/m 23.9 km/h (4 Bft) NW 1.0 C 11.9 C
06.10.2003 15:00 12.5 C 45 % 1014.9 hPa 0.0 l/m 25.6 km/h (4 Bft) NW 0.9 C 12.5 C
06.10.2003 16:00 13.0 C 40 % 1014.8 hPa 0.0 l/m 26.4 km/h (4 Bft) NW -0.2 C 13.0 C
06.10.2003 17:00 12.9 C 39 % 1014.2 hPa 0.0 l/m 18.3 km/h (3 Bft) W-NW -0.7 C 12.9 C
06.10.2003 18:00 10.8 C 48 % 1014.7 hPa 0.0 l/m 4.6 km/h (1 Bft) SO 0.3 C 10.7 C
06.10.2003 19:00 10.7 C 51 % 1014.6 hPa 0.0 l/m 8.9 km/h (2 Bft) W-NW 0.9 C 10.7 C
06.10.2003 20:00 10.9 C 51 % 1014.8 hPa 0.0 l/m 7.4 km/h (2 Bft) W 1.1 C 10.9 C
06.10.2003 21:00 9.9 C 61 % 1014.8 hPa 0.0 l/m 15.1 km/h (3 Bft) NW 2.8 C 8.4 C
06.10.2003 22:00 9.1 C 68 % 1014.8 hPa 0.0 l/m 8.3 km/h (2 Bft) W-NW 3.5 C 7.9 C
06.10.2003 23:00 8.5 C 78 % 1014.7 hPa 0.4 l/m 1.0 km/h (0 Bft) W 4.8 C 8.4 C
07.10.2003 00:00 7.9 C 89 % 1013.8 hPa 1.1 l/m 1.9 km/h (1 Bft) SO 6.2 C 7.6 C
07.10.2003 01:00 7.8 C 98 % 1013.7 hPa 1.1 l/m 0.7 km/h (0 Bft) W 7.5 C 7.7 C
07.10.2003 02:00 7.9 C 96 % 1012.8 hPa 0.0 l/m 5.4 km/h (1 Bft) SO 7.4 C 7.2 C
07.10.2003 03:00 8.0 C 96 % 1012.0 hPa 1.1 l/m 8.6 km/h (2 Bft) SO 7.3 C 6.6 C
07.10.2003 04:00 7.8 C 93 % 1010.8 hPa 1.5 l/m 6.8 km/h (2 Bft) W-NW 6.8 C 7.0 C
07.10.2003 05:00 8.2 C 94 % 1010.2 hPa 1.5 l/m 6.0 km/h (2 Bft) S 7.3 C 7.5 C
07.10.2003 06:00 8.6 C 92 % 1009.7 hPa 0.4 l/m 9.0 km/h (2 Bft) W-NW 7.4 C 7.4 C
07.10.2003 07:00 8.9 C 94 % 1009.7 hPa 1.1 l/m 14.2 km/h (3 Bft) N 7.9 C 6.9 C
07.10.2003 08:00 8.6 C 94 % 1009.6 hPa 1.9 l/m 9.9 km/h (2 Bft) N 7.6 C 7.1 C
07.10.2003 09:00 8.5 C 100 % 1008.9 hPa 1.1 l/m 2.8 km/h (1 Bft) SW 8.4 C 8.2 C
07.10.2003 10:00 8.8 C 96 % 1009.2 hPa 0.4 l/m 11.4 km/h (2 Bft) NW 8.2 C 7.3 C
07.10.2003 11:00 9.4 C 87 % 1010.0 hPa 1.1 l/m 33.0 km/h (5 Bft) W-NW 7.3 C 5.6 C
07.10.2003 12:00 9.2 C 84 % 1009.9 hPa 0.0 l/m 23.0 km/h (4 Bft) W-NW 6.8 C 6.3 C
07.10.2003 13:00 9.3 C 85 % 1009.4 hPa 1.1 l/m 16.0 km/h (3 Bft) W 6.9 C 7.2 C
07.10.2003 14:00 8.8 C 90 % 1008.2 hPa 1.5 l/m 6.5 km/h (2 Bft) W 7.3 C 8.0 C
07.10.2003 15:00 8.5 C 92 % 1007.6 hPa 1.5 l/m 9.6 km/h (2 Bft) W-NW 7.3 C 7.2 C
07.10.2003 16:00 8.3 C 96 % 1006.0 hPa 1.9 l/m 7.6 km/h (2 Bft) W 7.7 C 7.2 C
07.10.2003 17:00 8.1 C 94 % 1004.8 hPa 0.4 l/m 8.9 km/h (2 Bft) W 7.1 C 6.9 C
07.10.2003 18:00 8.2 C 92 % 1003.9 hPa 5.0 l/m 15.5 km/h (3 Bft) W 7.0 C 5.8 C
07.10.2003 19:00 5.6 C 93 % 1006.3 hPa 9.6 l/m 9.1 km/h (2 Bft) O-SO 4.5 C 3.9 C
07.10.2003 20:00 4.0 C 96 % 1008.6 hPa 5.7 l/m 2.2 km/h (1 Bft) NW 3.4 C 3.6 C
07.10.2003 21:00 2.9 C 100 % 1009.7 hPa 1.9 l/m 7.5 km/h (2 Bft) NW 2.9 C 1.2 C
07.10.2003 22:00 2.9 C 97 % 1011.1 hPa 0.0 l/m 2.9 km/h (1 Bft) W 2.6 C 2.4 C
07.10.2003 23:00 3.3 C 96 % 1012.5 hPa 0.0 l/m 8.4 km/h (2 Bft) SO 2.7 C 1.2 C
08.10.2003 00:00 3.4 C 98 % 1013.7 hPa 0.0 l/m 3.9 km/h (1 Bft) SO 3.1 C 2.6 C
08.10.2003 01:00 3.3 C 97 % 1014.6 hPa 0.4 l/m 3.3 km/h (1 Bft) SO 2.9 C 2.6 C
08.10.2003 02:00 3.4 C 95 % 1014.9 hPa 0.0 l/m 5.6 km/h (1 Bft) SO 2.7 C 2.1 C
08.10.2003 03:00 3.6 C 95 % 1015.1 hPa 0.0 l/m 3.4 km/h (1 Bft) S-SO 2.9 C 2.8 C
08.10.2003 04:00 3.9 C 95 % 1016.0 hPa 0.0 l/m 6.1 km/h (2 Bft) SO 3.2 C 2.4 C
08.10.2003 05:00 4.2 C 96 % 1016.0 hPa 0.0 l/m 3.0 km/h (1 Bft) S-SO 3.6 C 3.5 C
08.10.2003 06:00 4.4 C 98 % 1016.8 hPa 0.0 l/m 3.6 km/h (1 Bft) SO 4.2 C 3.7 C
08.10.2003 07:00 4.8 C 96 % 1017.4 hPa 0.0 l/m 2.6 km/h (1 Bft) W-NW 4.3 C 4.4 C
08.10.2003 08:00 5.4 C 93 % 1018.1 hPa 0.0 l/m 7.3 km/h (2 Bft) W-NW 4.3 C 4.1 C
08.10.2003 09:00 6.0 C 88 % 1019.1 hPa 0.0 l/m 6.5 km/h (2 Bft) NW 4.1 C 4.8 C
08.10.2003 10:00 6.4 C 87 % 1020.1 hPa 0.0 l/m 2.6 km/h (1 Bft) NW 4.3 C 6.0 C
08.10.2003 11:00 7.4 C 78 % 1020.1 hPa 0.0 l/m 4.1 km/h (1 Bft) W-NW 3.8 C 6.8 C
08.10.2003 12:00 7.2 C 79 % 1021.0 hPa 0.0 l/m 2.7 km/h (1 Bft) W-NW 3.7 C 6.8 C
08.10.2003 13:00 8.8 C 66 % 1020.5 hPa 0.0 l/m 9.7 km/h (2 Bft) W-NW 2.8 C 7.6 C
08.10.2003 14:00 11.1 C 50 % 1019.4 hPa 0.0 l/m 19.2 km/h (3 Bft) NW 0.9 C 11.1 C
08.10.2003 15:00 10.5 C 48 % 1019.1 hPa 0.0 l/m 18.0 km/h (3 Bft) W-NW -0.0 C 10.5 C
08.10.2003 16:00 10.7 C 49 % 1018.1 hPa 0.0 l/m 17.1 km/h (3 Bft) W-NW 0.4 C 10.7 C
08.10.2003 17:00 10.5 C 49 % 1018.1 hPa 0.0 l/m 20.7 km/h (4 Bft) W-NW 0.2 C 10.5 C
08.10.2003 18:00 10.0 C 52 % 1018.1 hPa 0.0 l/m 12.1 km/h (2 Bft) W-NW 0.7 C 8.9 C
08.10.2003 19:00 9.9 C 53 % 1017.4 hPa 0.0 l/m 14.5 km/h (3 Bft) W-NW 0.7 C 8.4 C
08.10.2003 20:00 9.7 C 54 % 1017.0 hPa 0.0 l/m 12.3 km/h (3 Bft) W 0.7 C 8.2 C
08.10.2003 21:00 9.9 C 54 % 1016.5 hPa 0.0 l/m 11.9 km/h (2 Bft) W-NW 1.1 C 8.3 C
08.10.2003 22:00 9.0 C 68 % 1016.6 hPa 0.0 l/m 11.7 km/h (2 Bft) W-NW 3.2 C 7.5 C
08.10.2003 23:00 7.5 C 86 % 1017.0 hPa 0.4 l/m 0.5 km/h (0 Bft) S-SO 5.4 C 7.5 C
09.10.2003 00:00 7.8 C 91 % 1016.0 hPa 1.5 l/m 0.4 km/h (0 Bft) SO 6.5 C 7.8 C
09.10.2003 01:00 8.0 C 93 % 1016.0 hPa 0.4 l/m 2.7 km/h (1 Bft) SO 6.9 C 7.7 C
09.10.2003 02:00 8.3 C 96 % 1016.0 hPa 0.4 l/m 1.2 km/h (1 Bft) SO 7.7 C 8.2 C
09.10.2003 03:00 9.0 C 95 % 1016.0 hPa 1.1 l/m 1.7 km/h (1 Bft) S-SO 8.2 C 8.9 C
09.10.2003 04:00 10.1 C 95 % 1015.8 hPa 0.0 l/m 16.2 km/h (3 Bft) W-NW 9.3 C 9.6 C
09.10.2003 05:00 11.3 C 94 % 1016.0 hPa 0.0 l/m 28.3 km/h (4 Bft) NW 10.3 C 11.3 C
09.10.2003 06:00 11.7 C 92 % 1016.3 hPa 0.4 l/m 30.2 km/h (5 Bft) NW 10.4 C 11.7 C
09.10.2003 07:00 11.8 C 93 % 1017.0 hPa 0.4 l/m 23.0 km/h (4 Bft) NW 10.7 C 11.8 C
09.10.2003 08:00 11.7 C 94 % 1017.9 hPa 0.8 l/m 11.5 km/h (2 Bft) NW 10.7 C 11.7 C
09.10.2003 09:00 11.2 C 98 % 1019.0 hPa 0.0 l/m 2.2 km/h (1 Bft) O-SO 10.8 C 11.2 C
09.10.2003 10:00 11.1 C 100 % 1019.8 hPa 0.4 l/m 1.6 km/h (1 Bft) O-SO 11.1 C 11.1 C
09.10.2003 11:00 11.7 C 100 % 1020.1 hPa 0.0 l/m 2.1 km/h (1 Bft) S-SO 11.7 C 11.7 C
09.10.2003 12:00 12.3 C 100 % 1020.1 hPa 0.0 l/m 3.9 km/h (1 Bft) SO 12.3 C 12.3 C
09.10.2003 13:00 12.9 C 90 % 1020.6 hPa 0.0 l/m 6.0 km/h (2 Bft) W-NW 11.4 C 12.9 C
09.10.2003 14:00 13.9 C 82 % 1020.1 hPa 0.0 l/m 7.4 km/h (2 Bft) W 10.8 C 13.9 C
09.10.2003 15:00 13.6 C 79 % 1020.5 hPa 0.0 l/m 10.0 km/h (2 Bft) W-NW 10.0 C 13.6 C
09.10.2003 16:00 13.5 C 82 % 1020.9 hPa 0.0 l/m 3.2 km/h (1 Bft) W-NW 10.6 C 13.5 C
09.10.2003 17:00 13.4 C 80 % 1021.2 hPa 0.0 l/m 4.5 km/h (1 Bft) W-NW 10.0 C 13.4 C
09.10.2003 18:00 12.8 C 85 % 1021.2 hPa 0.0 l/m 0.0 km/h (0 Bft) N 10.4 C 12.8 C
09.10.2003 19:00 12.5 C 89 % 1021.7 hPa 0.0 l/m 1.5 km/h (1 Bft) W-NW 10.7 C 12.5 C
09.10.2003 20:00 12.7 C 85 % 1022.2 hPa 0.0 l/m 3.2 km/h (1 Bft) W-NW 10.3 C 12.7 C
09.10.2003 21:00 12.5 C 87 % 1022.2 hPa 0.0 l/m 1.9 km/h (1 Bft) W 10.4 C 12.5 C
09.10.2003 22:00 12.3 C 89 % 1022.2 hPa 0.0 l/m 2.2 km/h (1 Bft) O 10.5 C 12.3 C
09.10.2003 23:00 11.6 C 89 % 1022.2 hPa 0.0 l/m 6.7 km/h (2 Bft) O-SO 9.9 C 11.6 C
10.10.2003 00:00 11.6 C 92 % 1022.2 hPa 0.0 l/m 6.8 km/h (2 Bft) O-SO 10.3 C 11.6 C
10.10.2003 01:00 11.7 C 93 % 1022.2 hPa 0.0 l/m 3.0 km/h (1 Bft) O-SO 10.6 C 11.7 C
10.10.2003 02:00 11.6 C 90 % 1022.2 hPa 0.0 l/m 1.0 km/h (0 Bft) S-SO 10.1 C 11.6 C
10.10.2003 03:00 11.5 C 93 % 1022.2 hPa 0.0 l/m 1.2 km/h (1 Bft) SO 10.4 C 11.5 C
10.10.2003 04:00 11.4 C 96 % 1022.2 hPa 0.0 l/m 4.1 km/h (1 Bft) SO 10.8 C 11.4 C
10.10.2003 05:00 11.2 C 95 % 1021.3 hPa 0.0 l/m 2.7 km/h (1 Bft) O 10.4 C 11.2 C
10.10.2003 06:00 10.8 C 94 % 1021.2 hPa 0.0 l/m 5.0 km/h (1 Bft) S-SO 9.9 C 10.8 C
10.10.2003 07:00 10.9 C 94 % 1021.2 hPa 0.0 l/m 5.9 km/h (2 Bft) O-SO 10.1 C 10.9 C
10.10.2003 08:00 11.2 C 98 % 1021.2 hPa 0.0 l/m 1.2 km/h (1 Bft) O 11.0 C 11.2 C
10.10.2003 09:00 11.8 C 97 % 1022.0 hPa 0.0 l/m 0.5 km/h (0 Bft) W 11.3 C 11.8 C
10.10.2003 10:00 12.7 C 89 % 1022.2 hPa 0.0 l/m 5.4 km/h (1 Bft) W-NW 11.0 C 12.7 C
10.10.2003 11:00 13.4 C 81 % 1023.1 hPa 0.0 l/m 16.5 km/h (3 Bft) W-NW 10.3 C 13.4 C
10.10.2003 12:00 14.0 C 77 % 1023.3 hPa 0.0 l/m 18.0 km/h (3 Bft) W-NW 10.0 C 14.0 C
10.10.2003 13:00 14.4 C 72 % 1023.3 hPa 0.0 l/m 18.1 km/h (3 Bft) W-NW 9.4 C 14.4 C
10.10.2003 14:00 14.5 C 67 % 1023.2 hPa 0.0 l/m 18.3 km/h (3 Bft) W-NW 8.5 C 14.5 C
10.10.2003 15:00 14.8 C 64 % 1023.3 hPa 0.0 l/m 22.7 km/h (4 Bft) W-NW 7.9 C 14.8 C
10.10.2003 16:00 15.1 C 61 % 1023.3 hPa 0.0 l/m 21.8 km/h (4 Bft) W-NW 7.6 C 15.1 C
10.10.2003 17:00 15.0 C 62 % 1023.3 hPa 0.0 l/m 20.9 km/h (4 Bft) W-NW 7.7 C 15.0 C
10.10.2003 18:00 13.2 C 70 % 1023.3 hPa 0.0 l/m 15.4 km/h (3 Bft) W-NW 7.9 C 13.2 C
10.10.2003 19:00 12.3 C 77 % 1023.6 hPa 0.0 l/m 1.5 km/h (1 Bft) W-NW 8.4 C 12.3 C
10.10.2003 20:00 11.8 C 83 % 1024.3 hPa 0.0 l/m 0.0 km/h (0 Bft) N 9.0 C 11.8 C
10.10.2003 21:00 11.7 C 83 % 1024.3 hPa 0.0 l/m 3.9 km/h (1 Bft) O 8.9 C 11.7 C
10.10.2003 22:00 11.4 C 84 % 1024.3 hPa 0.0 l/m 5.8 km/h (2 Bft) O 8.9 C 11.4 C
10.10.2003 23:00 11.0 C 86 % 1024.3 hPa 0.0 l/m 4.7 km/h (1 Bft) O 8.7 C 11.0 C
11.10.2003 00:00 10.2 C 87 % 1024.3 hPa 0.0 l/m 4.0 km/h (1 Bft) O-SO 8.2 C 10.0 C
11.10.2003 01:00 9.0 C 92 % 1024.3 hPa 0.0 l/m 6.3 km/h (2 Bft) O-SO 7.8 C 8.3 C
11.10.2003 02:00 8.2 C 94 % 1024.3 hPa 0.0 l/m 2.8 km/h (1 Bft) O-SO 7.3 C 7.9 C
11.10.2003 03:00 7.3 C 95 % 1024.3 hPa 0.0 l/m 0.2 km/h (0 Bft) O-SO 6.6 C 7.3 C
11.10.2003 04:00 7.7 C 97 % 1024.3 hPa 0.0 l/m 0.0 km/h (0 Bft) N 7.2 C 7.7 C
11.10.2003 05:00 7.1 C 100 % 1024.3 hPa 0.0 l/m 0.0 km/h (0 Bft) N 7.1 C 7.1 C
11.10.2003 06:00 6.9 C 100 % 1024.3 hPa 0.0 l/m 0.7 km/h (0 Bft) W 6.9 C 6.8 C
11.10.2003 07:00 6.2 C 100 % 1024.3 hPa 0.0 l/m 1.1 km/h (1 Bft) W 6.2 C 6.0 C
11.10.2003 08:00 6.3 C 100 % 1025.0 hPa 0.0 l/m 0.6 km/h (0 Bft) W 6.3 C 6.3 C
11.10.2003 09:00 7.1 C 97 % 1025.3 hPa 0.0 l/m 1.1 km/h (0 Bft) W 6.7 C 7.1 C
11.10.2003 10:00 8.1 C 92 % 1025.3 hPa 0.0 l/m 0.2 km/h (0 Bft) W 6.9 C 8.1 C
11.10.2003 11:00 10.4 C 81 % 1025.3 hPa 0.0 l/m 0.3 km/h (0 Bft) W 7.2 C 10.4 C
11.10.2003 12:00 13.6 C 70 % 1025.3 hPa 0.0 l/m 1.8 km/h (1 Bft) O 8.1 C 13.6 C
11.10.2003 13:00 15.6 C 55 % 1024.8 hPa 0.0 l/m 2.5 km/h (1 Bft) W 6.6 C 15.6 C
11.10.2003 14:00 17.3 C 49 % 1024.3 hPa 0.0 l/m 3.3 km/h (1 Bft) O-SO 6.4 C 17.3 C
11.10.2003 15:00 17.3 C 47 % 1023.9 hPa 0.0 l/m 2.7 km/h (1 Bft) O-SO 6.0 C 17.3 C
11.10.2003 16:00 17.2 C 49 % 1023.3 hPa 0.0 l/m 5.3 km/h (1 Bft) O-SO 6.4 C 17.2 C
11.10.2003 17:00 16.4 C 55 % 1023.3 hPa 0.0 l/m 8.0 km/h (2 Bft) O-SO 7.2 C 16.4 C
11.10.2003 18:00 14.5 C 67 % 1023.3 hPa 0.0 l/m 4.5 km/h (1 Bft) O 8.3 C 14.5 C
11.10.2003 19:00 11.6 C 80 % 1024.1 hPa 0.0 l/m 3.2 km/h (1 Bft) O 8.2 C 11.6 C
11.10.2003 20:00 9.7 C 87 % 1024.3 hPa 0.0 l/m 0.4 km/h (0 Bft) O 7.7 C 9.7 C
11.10.2003 21:00 8.7 C 91 % 1024.3 hPa 0.0 l/m 2.0 km/h (1 Bft) O 7.3 C 8.6 C
11.10.2003 22:00 7.9 C 93 % 1024.3 hPa 0.0 l/m 1.0 km/h (0 Bft) O 6.8 C 7.8 C
11.10.2003 23:00 7.3 C 94 % 1024.3 hPa 0.0 l/m 0.9 km/h (0 Bft) O 6.5 C 7.3 C
12.10.2003 00:00 6.7 C 95 % 1024.3 hPa 0.0 l/m 1.7 km/h (1 Bft) O-SO 5.9 C 6.5 C
12.10.2003 01:00 6.3 C 96 % 1024.5 hPa 0.0 l/m 0.7 km/h (0 Bft) O 5.7 C 6.2 C
12.10.2003 02:00 5.8 C 95 % 1024.3 hPa 0.0 l/m 0.0 km/h (0 Bft) N 5.1 C 5.8 C
12.10.2003 03:00 5.7 C 95 % 1024.3 hPa 0.0 l/m 0.0 km/h (0 Bft) N 5.0 C 5.7 C
12.10.2003 04:00 6.3 C 95 % 1024.3 hPa 0.0 l/m 0.6 km/h (0 Bft) O-SO 5.5 C 6.3 C
12.10.2003 05:00 5.7 C 95 % 1024.3 hPa 0.0 l/m 0.9 km/h (0 Bft) O-SO 4.9 C 5.6 C
12.10.2003 06:00 5.5 C 95 % 1024.3 hPa 0.0 l/m 0.9 km/h (0 Bft) O-SO 4.7 C 5.4 C
12.10.2003 07:00 5.5 C 95 % 1024.3 hPa 0.0 l/m 2.6 km/h (1 Bft) O-SO 4.8 C 5.2 C
12.10.2003 08:00 6.0 C 98 % 1024.3 hPa 0.0 l/m 0.9 km/h (0 Bft) O-SO 5.6 C 5.9 C
12.10.2003 09:00 7.0 C 100 % 1024.3 hPa 0.0 l/m 0.0 km/h (0 Bft) N 7.0 C 7.0 C
12.10.2003 10:00 8.6 C 98 % 1024.3 hPa 0.0 l/m 0.0 km/h (0 Bft) N 8.3 C 8.6 C
12.10.2003 11:00 10.6 C 90 % 1024.3 hPa 0.0 l/m 0.5 km/h (0 Bft) W 9.0 C 10.6 C
12.10.2003 12:00 13.3 C 78 % 1024.3 hPa 0.0 l/m 2.6 km/h (1 Bft) O 9.4 C 13.3 C
12.10.2003 13:00 15.2 C 67 % 1023.3 hPa 0.0 l/m 19.4 km/h (3 Bft) O-SO 9.0 C 15.2 C
12.10.2003 14:00 14.8 C 71 % 1023.3 hPa 0.0 l/m 13.9 km/h (3 Bft) O-SO 9.6 C 14.8 C
12.10.2003 15:00 14.9 C 65 % 1022.5 hPa 0.0 l/m 13.3 km/h (3 Bft) O-SO 8.3 C 14.9 C
12.10.2003 16:00 15.2 C 59 % 1022.2 hPa 0.0 l/m 20.3 km/h (4 Bft) O-SO 7.2 C 15.2 C
12.10.2003 17:00 14.4 C 61 % 1022.2 hPa 0.0 l/m 21.5 km/h (4 Bft) O-SO 6.9 C 14.4 C
12.10.2003 18:00 12.7 C 70 % 1022.2 hPa 0.0 l/m 11.2 km/h (2 Bft) O-SO 7.3 C 12.7 C
12.10.2003 19:00 10.3 C 80 % 1022.2 hPa 0.0 l/m 0.6 km/h (0 Bft) O 7.0 C 10.3 C
12.10.2003 20:00 10.5 C 79 % 1022.2 hPa 0.0 l/m 0.4 km/h (0 Bft) N-NO 7.1 C 10.5 C
12.10.2003 21:00 10.1 C 76 % 1022.4 hPa 0.0 l/m 0.1 km/h (0 Bft) N 6.1 C 10.1 C
12.10.2003 22:00 8.9 C 81 % 1022.2 hPa 0.0 l/m 0.0 km/h (0 Bft) N 5.9 C 8.9 C
12.10.2003 23:00 9.2 C 86 % 1022.3 hPa 0.0 l/m 0.0 km/h (0 Bft) N 7.0 C 9.2 C
Min-Datum _ 07.10.03 06.10.03 07.10.03 - 06.10.03 - 08.10.03 07.10.03
_ Min-Zeit 21:36 17:12 17:57 - 00:15 - 15:06 21:12
Minimum _ 2.7 C 38 % 1003.5 hPa - 0.0 km/h (0 Bft) - -1.4 C -2.2 C
Max-Datum _ 11.10.03 06.10.03 11.10.03 07.10.03 06.10.03 - 09.10.03 11.10.03
_ Max-Zeit 14:40 03:06 08:07 18:00 16:18 - 12:37 14:40
Maximum _ 17.9 C 100 % 1025.3 hPa 9.6 l/m 58.9 km/h
NW (7 Bft)
- 12.8 C 17.9 C
Durchschnitt _ 9.6 C 83 % 1019.0 hPa #48.5 l/m 7.1 km/h (2 Bft) W-NW 6.6 C 9.2 C

Durchschnitt Minimum Temp.9.1 C
Durchschnitt Maximum Temp.10.2 C
© Kaiko 2003